sensor_id;sensor_type;location;lat;lon;timestamp;pressure;altitude;pressure_sealevel;temperature;humidity
12793;BME280;6460;42.684;23.260;2022-08-30T00:02:27;94727.25;;;21.19;84.02
12793;BME280;6460;42.684;23.260;2022-08-30T00:04:54;94744.81;;;20.94;86.06
12793;BME280;6460;42.684;23.260;2022-08-30T00:07:22;94734.84;;;20.84;86.46
12793;BME280;6460;42.684;23.260;2022-08-30T00:09:50;94745.66;;;20.91;86.41
12793;BME280;6460;42.684;23.260;2022-08-30T00:12:17;94736.75;;;21.10;85.48
12793;BME280;6460;42.684;23.260;2022-08-30T00:14:47;94736.50;;;21.01;86.15
12793;BME280;6460;42.684;23.260;2022-08-30T00:17:14;94726.88;;;20.74;87.94
12793;BME280;6460;42.684;23.260;2022-08-30T00:19:41;94730.00;;;20.95;86.87
12793;BME280;6460;42.684;23.260;2022-08-30T00:22:09;94730.63;;;21.03;86.84
12793;BME280;6460;42.684;23.260;2022-08-30T00:24:37;94737.97;;;20.86;87.61
12793;BME280;6460;42.684;23.260;2022-08-30T00:27:03;94739.25;;;20.78;88.32
12793;BME280;6460;42.684;23.260;2022-08-30T00:29:30;94736.91;;;21.00;86.95
12793;BME280;6460;42.684;23.260;2022-08-30T00:31:59;94739.13;;;21.08;86.24
12793;BME280;6460;42.684;23.260;2022-08-30T00:34:27;94734.47;;;21.09;85.84
12793;BME280;6460;42.684;23.260;2022-08-30T00:36:56;94732.44;;;20.90;87.87
12793;BME280;6460;42.684;23.260;2022-08-30T00:39:23;94742.81;;;20.75;88.36
12793;BME280;6460;42.684;23.260;2022-08-30T00:41:51;94734.50;;;20.59;89.63
12793;BME280;6460;42.684;23.260;2022-08-30T00:44:18;94733.31;;;20.83;88.62
12793;BME280;6460;42.684;23.260;2022-08-30T00:46:45;94739.59;;;20.34;90.78
12793;BME280;6460;42.684;23.260;2022-08-30T00:49:13;94742.63;;;20.39;92.15
12793;BME280;6460;42.684;23.260;2022-08-30T00:51:41;94737.59;;;20.61;90.55
12793;BME280;6460;42.684;23.260;2022-08-30T00:54:09;94730.78;;;20.73;89.47
12793;BME280;6460;42.684;23.260;2022-08-30T00:56:36;94738.97;;;20.73;89.48
12793;BME280;6460;42.684;23.260;2022-08-30T00:59:05;94737.06;;;20.70;89.62
12793;BME280;6460;42.684;23.260;2022-08-30T01:01:33;94734.97;;;20.77;89.85
12793;BME280;6460;42.684;23.260;2022-08-30T01:04:03;94742.88;;;20.72;89.97
12793;BME280;6460;42.684;23.260;2022-08-30T01:06:32;94750.19;;;20.78;89.58
12793;BME280;6460;42.684;23.260;2022-08-30T01:09:02;94739.63;;;20.80;89.27
12793;BME280;6460;42.684;23.260;2022-08-30T01:11:31;94737.84;;;20.70;89.80
12793;BME280;6460;42.684;23.260;2022-08-30T01:14:00;94738.31;;;20.65;90.78
12793;BME280;6460;42.684;23.260;2022-08-30T01:16:30;94734.88;;;20.61;91.90
12793;BME280;6460;42.684;23.260;2022-08-30T01:18:59;94729.59;;;20.74;90.39
12793;BME280;6460;42.684;23.260;2022-08-30T01:21:34;94738.19;;;20.72;90.60
12793;BME280;6460;42.684;23.260;2022-08-30T01:24:05;94733.72;;;20.58;91.45
12793;BME280;6460;42.684;23.260;2022-08-30T01:26:35;94730.94;;;20.39;92.45
12793;BME280;6460;42.684;23.260;2022-08-30T01:29:06;94731.88;;;20.29;93.45
12793;BME280;6460;42.684;23.260;2022-08-30T01:31:34;94734.84;;;20.38;92.97
12793;BME280;6460;42.684;23.260;2022-08-30T01:34:03;94735.44;;;20.49;92.31
12793;BME280;6460;42.684;23.260;2022-08-30T01:36:32;94736.00;;;20.64;91.49
12793;BME280;6460;42.684;23.260;2022-08-30T01:39:00;94740.63;;;20.67;91.04
12793;BME280;6460;42.684;23.260;2022-08-30T01:41:32;94742.53;;;20.70;90.93
12793;BME280;6460;42.684;23.260;2022-08-30T01:44:01;94728.44;;;20.71;91.15
12793;BME280;6460;42.684;23.260;2022-08-30T01:46:31;94729.03;;;20.59;92.40
12793;BME280;6460;42.684;23.260;2022-08-30T01:49:01;94722.09;;;20.54;92.87
12793;BME280;6460;42.684;23.260;2022-08-30T01:51:29;94736.34;;;20.66;92.24
12793;BME280;6460;42.684;23.260;2022-08-30T01:53:57;94733.78;;;20.55;92.29
12793;BME280;6460;42.684;23.260;2022-08-30T01:56:26;94729.34;;;20.41;93.90
12793;BME280;6460;42.684;23.260;2022-08-30T01:58:56;94721.03;;;20.22;94.85
12793;BME280;6460;42.684;23.260;2022-08-30T02:01:25;94718.56;;;20.31;95.10
12793;BME280;6460;42.684;23.260;2022-08-30T02:03:54;94712.63;;;20.36;94.35
12793;BME280;6460;42.684;23.260;2022-08-30T02:06:21;94720.69;;;19.63;100.00
12793;BME280;6460;42.684;23.260;2022-08-30T02:08:49;94716.75;;;20.21;97.05
12793;BME280;6460;42.684;23.260;2022-08-30T02:11:16;94718.22;;;20.29;95.53
12793;BME280;6460;42.684;23.260;2022-08-30T02:13:44;94711.50;;;20.33;95.00
12793;BME280;6460;42.684;23.260;2022-08-30T02:16:15;94713.97;;;20.24;93.70
12793;BME280;6460;42.684;23.260;2022-08-30T02:18:43;94712.50;;;20.20;93.23
12793;BME280;6460;42.684;23.260;2022-08-30T02:21:11;94713.56;;;20.26;93.50
12793;BME280;6460;42.684;23.260;2022-08-30T02:23:39;94708.66;;;20.14;92.85
12793;BME280;6460;42.684;23.260;2022-08-30T02:26:07;94710.34;;;20.34;91.74
12793;BME280;6460;42.684;23.260;2022-08-30T02:28:35;94713.19;;;20.24;92.60
12793;BME280;6460;42.684;23.260;2022-08-30T02:31:02;94709.22;;;20.32;92.70
12793;BME280;6460;42.684;23.260;2022-08-30T02:33:31;94719.03;;;20.26;94.24
12793;BME280;6460;42.684;23.260;2022-08-30T02:35:58;94713.84;;;20.35;93.42
12793;BME280;6460;42.684;23.260;2022-08-30T02:38:25;94718.03;;;20.39;93.30
12793;BME280;6460;42.684;23.260;2022-08-30T02:40:53;94717.69;;;20.37;93.94
12793;BME280;6460;42.684;23.260;2022-08-30T02:43:20;94718.09;;;20.36;94.11
12793;BME280;6460;42.684;23.260;2022-08-30T02:45:47;94719.41;;;20.28;95.03
12793;BME280;6460;42.684;23.260;2022-08-30T02:48:15;94715.56;;;20.22;94.95
12793;BME280;6460;42.684;23.260;2022-08-30T02:50:46;94716.19;;;20.33;92.89
12793;BME280;6460;42.684;23.260;2022-08-30T02:53:13;94711.56;;;20.30;91.79
12793;BME280;6460;42.684;23.260;2022-08-30T02:55:41;94711.09;;;20.08;93.51
12793;BME280;6460;42.684;23.260;2022-08-30T02:58:09;94706.97;;;20.23;91.25
12793;BME280;6460;42.684;23.260;2022-08-30T03:00:38;94702.38;;;20.17;91.75
12793;BME280;6460;42.684;23.260;2022-08-30T03:03:06;94709.72;;;19.96;92.94
12793;BME280;6460;42.684;23.260;2022-08-30T03:05:34;94708.25;;;19.88;94.76
12793;BME280;6460;42.684;23.260;2022-08-30T03:08:03;94708.88;;;19.73;95.55
12793;BME280;6460;42.684;23.260;2022-08-30T03:10:30;94708.50;;;19.71;97.07
12793;BME280;6460;42.684;23.260;2022-08-30T03:12:57;94710.72;;;19.52;97.48
12793;BME280;6460;42.684;23.260;2022-08-30T03:15:25;94718.47;;;19.54;98.57
12793;BME280;6460;42.684;23.260;2022-08-30T03:17:53;94712.00;;;19.37;100.00
12793;BME280;6460;42.684;23.260;2022-08-30T03:20:21;94724.69;;;19.21;100.00
12793;BME280;6460;42.684;23.260;2022-08-30T03:22:49;94723.13;;;19.20;100.00
12793;BME280;6460;42.684;23.260;2022-08-30T03:25:18;94721.84;;;19.28;100.00
12793;BME280;6460;42.684;23.260;2022-08-30T03:27:46;94716.13;;;19.19;100.00
12793;BME280;6460;42.684;23.260;2022-08-30T03:30:17;94727.44;;;19.17;100.00
12793;BME280;6460;42.684;23.260;2022-08-30T03:32:45;94732.97;;;19.10;100.00
12793;BME280;6460;42.684;23.260;2022-08-30T03:35:13;94729.53;;;19.02;100.00
12793;BME280;6460;42.684;23.260;2022-08-30T03:37:42;94726.34;;;19.11;100.00
12793;BME280;6460;42.684;23.260;2022-08-30T03:40:11;94726.00;;;19.06;100.00
12793;BME280;6460;42.684;23.260;2022-08-30T03:42:40;94727.41;;;19.21;100.00
12793;BME280;6460;42.684;23.260;2022-08-30T03:45:08;94729.47;;;19.10;100.00
12793;BME280;6460;42.684;23.260;2022-08-30T03:47:35;94729.31;;;19.24;100.00
12793;BME280;6460;42.684;23.260;2022-08-30T03:50:03;94738.69;;;19.19;100.00
12793;BME280;6460;42.684;23.260;2022-08-30T03:52:31;94735.47;;;19.28;100.00
12793;BME280;6460;42.684;23.260;2022-08-30T03:54:58;94728.72;;;19.06;100.00
12793;BME280;6460;42.684;23.260;2022-08-30T03:57:26;94720.75;;;19.22;100.00
12793;BME280;6460;42.684;23.260;2022-08-30T03:59:54;94734.66;;;19.31;100.00
12793;BME280;6460;42.684;23.260;2022-08-30T04:02:22;94731.22;;;19.27;100.00
12793;BME280;6460;42.684;23.260;2022-08-30T04:04:49;94734.00;;;19.23;100.00
12793;BME280;6460;42.684;23.260;2022-08-30T04:07:17;94731.47;;;19.02;100.00
12793;BME280;6460;42.684;23.260;2022-08-30T04:09:45;94728.94;;;19.22;100.00
12793;BME280;6460;42.684;23.260;2022-08-30T04:12:12;94722.31;;;19.23;100.00
12793;BME280;6460;42.684;23.260;2022-08-30T04:14:40;94727.66;;;19.33;100.00
12793;BME280;6460;42.684;23.260;2022-08-30T04:17:08;94732.47;;;19.19;100.00
12793;BME280;6460;42.684;23.260;2022-08-30T04:19:35;94735.44;;;19.31;100.00
12793;BME280;6460;42.684;23.260;2022-08-30T04:22:03;94738.09;;;19.42;100.00
12793;BME280;6460;42.684;23.260;2022-08-30T04:24:30;94745.75;;;19.50;100.00
12793;BME280;6460;42.684;23.260;2022-08-30T04:26:59;94729.00;;;19.52;100.00
12793;BME280;6460;42.684;23.260;2022-08-30T04:29:26;94734.38;;;19.59;100.00
12793;BME280;6460;42.684;23.260;2022-08-30T04:31:54;94739.19;;;19.48;100.00
12793;BME280;6460;42.684;23.260;2022-08-30T04:34:23;94742.88;;;19.65;100.00
12793;BME280;6460;42.684;23.260;2022-08-30T04:36:50;94746.34;;;19.69;100.00
12793;BME280;6460;42.684;23.260;2022-08-30T04:39:18;94745.09;;;19.73;100.00
12793;BME280;6460;42.684;23.260;2022-08-30T04:41:45;94747.00;;;19.76;100.00
12793;BME280;6460;42.684;23.260;2022-08-30T04:44:13;94748.38;;;19.61;100.00
12793;BME280;6460;42.684;23.260;2022-08-30T04:46:41;94755.25;;;19.69;100.00
12793;BME280;6460;42.684;23.260;2022-08-30T04:49:08;94746.06;;;19.56;100.00
12793;BME280;6460;42.684;23.260;2022-08-30T04:51:37;94756.19;;;19.59;100.00
12793;BME280;6460;42.684;23.260;2022-08-30T04:54:04;94755.00;;;19.60;100.00
12793;BME280;6460;42.684;23.260;2022-08-30T04:56:32;94759.91;;;19.72;100.00
12793;BME280;6460;42.684;23.260;2022-08-30T04:58:59;94764.59;;;19.72;100.00
12793;BME280;6460;42.684;23.260;2022-08-30T05:01:29;94763.75;;;19.78;100.00
12793;BME280;6460;42.684;23.260;2022-08-30T05:03:58;94768.31;;;19.85;100.00
12793;BME280;6460;42.684;23.260;2022-08-30T05:06:27;94765.16;;;19.90;100.00
12793;BME280;6460;42.684;23.260;2022-08-30T05:08:56;94764.22;;;20.00;100.00
12793;BME280;6460;42.684;23.260;2022-08-30T05:11:25;94760.63;;;20.06;100.00
12793;BME280;6460;42.684;23.260;2022-08-30T05:13:52;94770.31;;;20.11;100.00
12793;BME280;6460;42.684;23.260;2022-08-30T05:16:19;94772.25;;;20.11;100.00
12793;BME280;6460;42.684;23.260;2022-08-30T05:18:48;94780.13;;;20.05;100.00
12793;BME280;6460;42.684;23.260;2022-08-30T05:21:17;94781.69;;;20.06;100.00
12793;BME280;6460;42.684;23.260;2022-08-30T05:23:44;94778.09;;;20.13;100.00
12793;BME280;6460;42.684;23.260;2022-08-30T05:26:14;94782.88;;;20.05;100.00
12793;BME280;6460;42.684;23.260;2022-08-30T05:28:42;94786.53;;;20.22;100.00
12793;BME280;6460;42.684;23.260;2022-08-30T05:31:14;94778.69;;;20.24;100.00
12793;BME280;6460;42.684;23.260;2022-08-30T05:33:42;94788.09;;;20.23;100.00
12793;BME280;6460;42.684;23.260;2022-08-30T05:36:10;94787.44;;;20.12;100.00
12793;BME280;6460;42.684;23.260;2022-08-30T05:38:38;94782.81;;;20.08;100.00
12793;BME280;6460;42.684;23.260;2022-08-30T05:41:06;94785.81;;;20.18;100.00
12793;BME280;6460;42.684;23.260;2022-08-30T05:43:35;94783.81;;;20.22;100.00
12793;BME280;6460;42.684;23.260;2022-08-30T05:46:06;94781.00;;;20.29;100.00
12793;BME280;6460;42.684;23.260;2022-08-30T05:48:34;94784.16;;;20.24;100.00
12793;BME280;6460;42.684;23.260;2022-08-30T05:51:02;94782.69;;;19.89;100.00
12793;BME280;6460;42.684;23.260;2022-08-30T05:53:29;94782.09;;;20.04;100.00
12793;BME280;6460;42.684;23.260;2022-08-30T05:55:57;94780.78;;;20.16;100.00
12793;BME280;6460;42.684;23.260;2022-08-30T05:58:24;94785.84;;;20.14;100.00
12793;BME280;6460;42.684;23.260;2022-08-30T06:00:53;94786.63;;;20.15;100.00
12793;BME280;6460;42.684;23.260;2022-08-30T06:03:20;94786.63;;;20.15;100.00
12793;BME280;6460;42.684;23.260;2022-08-30T06:05:47;94784.25;;;20.17;100.00
12793;BME280;6460;42.684;23.260;2022-08-30T06:08:15;94781.06;;;20.22;100.00
12793;BME280;6460;42.684;23.260;2022-08-30T06:10:42;94789.63;;;20.24;100.00
12793;BME280;6460;42.684;23.260;2022-08-30T06:13:10;94786.53;;;20.22;100.00
12793;BME280;6460;42.684;23.260;2022-08-30T06:15:39;94787.66;;;20.24;100.00
12793;BME280;6460;42.684;23.260;2022-08-30T06:18:10;94784.09;;;20.31;100.00
12793;BME280;6460;42.684;23.260;2022-08-30T06:20:39;94782.88;;;20.35;100.00
12793;BME280;6460;42.684;23.260;2022-08-30T06:23:08;94794.91;;;20.38;100.00
12793;BME280;6460;42.684;23.260;2022-08-30T06:25:36;94795.25;;;20.40;100.00
12793;BME280;6460;42.684;23.260;2022-08-30T06:28:05;94799.56;;;20.41;100.00
12793;BME280;6460;42.684;23.260;2022-08-30T06:30:32;94802.63;;;20.43;100.00
12793;BME280;6460;42.684;23.260;2022-08-30T06:33:00;94799.06;;;20.46;100.00
12793;BME280;6460;42.684;23.260;2022-08-30T06:35:29;94801.44;;;20.44;100.00
12793;BME280;6460;42.684;23.260;2022-08-30T06:37:58;94801.81;;;20.46;100.00
12793;BME280;6460;42.684;23.260;2022-08-30T06:40:25;94811.94;;;20.45;100.00
12793;BME280;6460;42.684;23.260;2022-08-30T06:42:52;94804.53;;;20.46;100.00
12793;BME280;6460;42.684;23.260;2022-08-30T06:45:20;94814.28;;;20.47;100.00
12793;BME280;6460;42.684;23.260;2022-08-30T06:47:48;94808.81;;;20.47;100.00
12793;BME280;6460;42.684;23.260;2022-08-30T06:50:16;94816.59;;;20.48;100.00
12793;BME280;6460;42.684;23.260;2022-08-30T06:52:45;94816.47;;;20.55;100.00
12793;BME280;6460;42.684;23.260;2022-08-30T06:55:14;94825.25;;;20.43;100.00
12793;BME280;6460;42.684;23.260;2022-08-30T06:57:42;94820.19;;;20.69;100.00
12793;BME280;6460;42.684;23.260;2022-08-30T07:00:12;94809.09;;;20.79;100.00
12793;BME280;6460;42.684;23.260;2022-08-30T07:02:40;94824.59;;;20.86;100.00
12793;BME280;6460;42.684;23.260;2022-08-30T07:05:08;94816.34;;;21.36;100.00
12793;BME280;6460;42.684;23.260;2022-08-30T07:07:36;94828.41;;;21.38;100.00
12793;BME280;6460;42.684;23.260;2022-08-30T07:10:06;94823.38;;;21.37;100.00
12793;BME280;6460;42.684;23.260;2022-08-30T07:12:33;94823.94;;;21.28;100.00
12793;BME280;6460;42.684;23.260;2022-08-30T07:15:02;94816.88;;;21.50;100.00
12793;BME280;6460;42.684;23.260;2022-08-30T07:17:29;94822.63;;;21.56;100.00
12793;BME280;6460;42.684;23.260;2022-08-30T07:20:13;94810.41;;;21.41;100.00
12793;BME280;6460;42.684;23.260;2022-08-30T07:22:41;94825.50;;;21.26;100.00
12793;BME280;6460;42.684;23.260;2022-08-30T07:25:10;94822.25;;;21.34;100.00
12793;BME280;6460;42.684;23.260;2022-08-30T07:27:40;94818.97;;;21.43;100.00
12793;BME280;6460;42.684;23.260;2022-08-30T07:30:08;94820.88;;;21.46;100.00
12793;BME280;6460;42.684;23.260;2022-08-30T07:32:36;94827.50;;;21.45;100.00
12793;BME280;6460;42.684;23.260;2022-08-30T07:35:04;94822.19;;;21.57;100.00
12793;BME280;6460;42.684;23.260;2022-08-30T07:37:32;94820.81;;;21.69;100.00
12793;BME280;6460;42.684;23.260;2022-08-30T07:39:59;94826.13;;;21.76;100.00
12793;BME280;6460;42.684;23.260;2022-08-30T07:42:27;94820.59;;;21.80;98.24
12793;BME280;6460;42.684;23.260;2022-08-30T07:44:54;94819.13;;;21.75;99.37
12793;BME280;6460;42.684;23.260;2022-08-30T07:47:21;94827.41;;;21.72;98.12
12793;BME280;6460;42.684;23.260;2022-08-30T07:49:49;94830.63;;;21.86;98.67
12793;BME280;6460;42.684;23.260;2022-08-30T07:52:16;94822.41;;;21.86;98.59
12793;BME280;6460;42.684;23.260;2022-08-30T07:54:43;94838.81;;;22.09;97.26
12793;BME280;6460;42.684;23.260;2022-08-30T07:57:09;94837.56;;;21.71;96.56
12793;BME280;6460;42.684;23.260;2022-08-30T07:59:38;94833.59;;;21.33;98.57
12793;BME280;6460;42.684;23.260;2022-08-30T08:02:05;94837.13;;;21.06;100.00
12793;BME280;6460;42.684;23.260;2022-08-30T08:04:32;94843.38;;;20.57;100.00
12793;BME280;6460;42.684;23.260;2022-08-30T08:07:00;94837.97;;;21.03;100.00
12793;BME280;6460;42.684;23.260;2022-08-30T08:09:27;94849.78;;;20.47;100.00
12793;BME280;6460;42.684;23.260;2022-08-30T08:11:55;94843.13;;;20.48;100.00
12793;BME280;6460;42.684;23.260;2022-08-30T08:14:22;94839.78;;;20.64;100.00
12793;BME280;6460;42.684;23.260;2022-08-30T08:16:51;94830.88;;;21.09;100.00
12793;BME280;6460;42.684;23.260;2022-08-30T08:19:18;94834.88;;;20.78;100.00
12793;BME280;6460;42.684;23.260;2022-08-30T08:21:46;94835.97;;;21.07;100.00
12793;BME280;6460;42.684;23.260;2022-08-30T08:24:13;94839.91;;;21.30;100.00
12793;BME280;6460;42.684;23.260;2022-08-30T08:26:41;94831.88;;;21.19;100.00
12793;BME280;6460;42.684;23.260;2022-08-30T08:29:08;94838.59;;;21.38;100.00
12793;BME280;6460;42.684;23.260;2022-08-30T08:31:36;94832.34;;;21.37;100.00
12793;BME280;6460;42.684;23.260;2022-08-30T08:34:04;94827.81;;;21.70;100.00
12793;BME280;6460;42.684;23.260;2022-08-30T08:36:32;94831.69;;;21.73;100.00
12793;BME280;6460;42.684;23.260;2022-08-30T08:38:59;94830.72;;;21.63;98.42
12793;BME280;6460;42.684;23.260;2022-08-30T08:41:35;94828.75;;;22.03;96.90
12793;BME280;6460;42.684;23.260;2022-08-30T08:44:12;94831.56;;;21.99;95.23
12793;BME280;6460;42.684;23.260;2022-08-30T08:46:44;94826.09;;;22.19;94.47
12793;BME280;6460;42.684;23.260;2022-08-30T08:49:16;94831.13;;;22.56;93.45
12793;BME280;6460;42.684;23.260;2022-08-30T08:51:43;94827.41;;;22.83;90.53
12793;BME280;6460;42.684;23.260;2022-08-30T08:54:32;94821.25;;;22.95;89.61
12793;BME280;6460;42.684;23.260;2022-08-30T08:57:00;94824.75;;;23.11;89.04
12793;BME280;6460;42.684;23.260;2022-08-30T08:59:27;94829.22;;;23.22;89.35
12793;BME280;6460;42.684;23.260;2022-08-30T09:01:58;94831.09;;;23.25;91.77
12793;BME280;6460;42.684;23.260;2022-08-30T09:04:31;94827.94;;;23.26;90.97
12793;BME280;6460;42.684;23.260;2022-08-30T09:07:02;94829.03;;;23.29;91.54
12793;BME280;6460;42.684;23.260;2022-08-30T09:09:31;94835.19;;;23.33;92.87
12793;BME280;6460;42.684;23.260;2022-08-30T09:11:58;94837.06;;;23.36;93.18
12793;BME280;6460;42.684;23.260;2022-08-30T09:14:27;94830.75;;;23.23;93.91
12793;BME280;6460;42.684;23.260;2022-08-30T09:16:58;94831.19;;;22.89;94.66
12793;BME280;6460;42.684;23.260;2022-08-30T09:19:40;94833.41;;;22.78;95.79
12793;BME280;6460;42.684;23.260;2022-08-30T09:22:19;94835.41;;;22.57;96.55
12793;BME280;6460;42.684;23.260;2022-08-30T09:24:50;94828.94;;;22.32;100.00
12793;BME280;6460;42.684;23.260;2022-08-30T09:27:21;94836.50;;;22.44;99.71
12793;BME280;6460;42.684;23.260;2022-08-30T09:29:51;94827.25;;;22.38;98.81
12793;BME280;6460;42.684;23.260;2022-08-30T09:32:27;94833.56;;;22.35;100.00
12793;BME280;6460;42.684;23.260;2022-08-30T09:34:57;94826.09;;;22.55;100.00
12793;BME280;6460;42.684;23.260;2022-08-30T09:37:28;94826.78;;;22.59;100.00
12793;BME280;6460;42.684;23.260;2022-08-30T09:39:57;94829.38;;;22.66;100.00
12793;BME280;6460;42.684;23.260;2022-08-30T09:42:27;94833.66;;;22.67;99.36
12793;BME280;6460;42.684;23.260;2022-08-30T09:44:55;94828.09;;;22.71;99.45
12793;BME280;6460;42.684;23.260;2022-08-30T09:47:36;94831.94;;;22.73;99.84
12793;BME280;6460;42.684;23.260;2022-08-30T09:50:09;94829.91;;;22.77;100.00
12793;BME280;6460;42.684;23.260;2022-08-30T09:52:46;94819.19;;;22.83;100.00
12793;BME280;6460;42.684;23.260;2022-08-30T09:55:29;94822.19;;;22.88;95.08
12793;BME280;6460;42.684;23.260;2022-08-30T09:58:06;94828.19;;;22.99;95.43
12793;BME280;6460;42.684;23.260;2022-08-30T10:00:40;94822.19;;;23.20;93.09
12793;BME280;6460;42.684;23.260;2022-08-30T10:03:19;94817.72;;;23.43;92.03
12793;BME280;6460;42.684;23.260;2022-08-30T10:05:56;94813.06;;;23.56;91.78
12793;BME280;6460;42.684;23.260;2022-08-30T10:08:30;94816.50;;;23.60;91.22
12793;BME280;6460;42.684;23.260;2022-08-30T10:11:02;94813.28;;;23.90;88.88
12793;BME280;6460;42.684;23.260;2022-08-30T10:13:41;94811.66;;;23.93;91.19
12793;BME280;6460;42.684;23.260;2022-08-30T10:16:18;94809.13;;;23.86;91.02
12793;BME280;6460;42.684;23.260;2022-08-30T10:18:52;94811.75;;;23.89;90.18
12793;BME280;6460;42.684;23.260;2022-08-30T10:21:30;94810.03;;;23.95;89.16
12793;BME280;6460;42.684;23.260;2022-08-30T10:24:02;94801.31;;;23.84;87.89
12793;BME280;6460;42.684;23.260;2022-08-30T10:26:34;94798.28;;;24.07;87.39
12793;BME280;6460;42.684;23.260;2022-08-30T10:29:05;94799.69;;;24.28;87.65
12793;BME280;6460;42.684;23.260;2022-08-30T10:31:39;94791.88;;;24.39;86.89
12793;BME280;6460;42.684;23.260;2022-08-30T10:34:11;94794.63;;;24.52;86.21
12793;BME280;6460;42.684;23.260;2022-08-30T10:36:44;94792.00;;;24.48;85.01
12793;BME280;6460;42.684;23.260;2022-08-30T10:39:17;94793.75;;;24.67;82.49
12793;BME280;6460;42.684;23.260;2022-08-30T10:41:49;94786.84;;;24.63;80.75
12793;BME280;6460;42.684;23.260;2022-08-30T10:44:22;94783.84;;;24.70;81.55
12793;BME280;6460;42.684;23.260;2022-08-30T10:47:08;94788.72;;;24.66;81.96
12793;BME280;6460;42.684;23.260;2022-08-30T10:49:42;94780.44;;;24.79;81.95
12793;BME280;6460;42.684;23.260;2022-08-30T10:52:22;94780.69;;;25.31;81.72
12793;BME280;6460;42.684;23.260;2022-08-30T10:54:54;94779.22;;;25.52;81.17
12793;BME280;6460;42.684;23.260;2022-08-30T10:57:25;94771.81;;;25.83;80.24
12793;BME280;6460;42.684;23.260;2022-08-30T10:59:56;94773.22;;;25.88;79.95
12793;BME280;6460;42.684;23.260;2022-08-30T11:05:33;94765.28;;;25.90;78.83
12793;BME280;6460;42.684;23.260;2022-08-30T11:08:16;94759.56;;;25.62;76.24
12793;BME280;6460;42.684;23.260;2022-08-30T11:10:58;94752.00;;;25.75;77.53
12793;BME280;6460;42.684;23.260;2022-08-30T11:13:30;94763.03;;;25.97;77.91
12793;BME280;6460;42.684;23.260;2022-08-30T11:16:03;94759.31;;;26.44;74.96
12793;BME280;6460;42.684;23.260;2022-08-30T11:18:33;94751.19;;;26.80;72.76
12793;BME280;6460;42.684;23.260;2022-08-30T11:21:20;94739.28;;;26.92;72.80
12793;BME280;6460;42.684;23.260;2022-08-30T11:24:03;94742.69;;;27.23;71.41
12793;BME280;6460;42.684;23.260;2022-08-30T11:26:58;94741.19;;;27.77;72.90
12793;BME280;6460;42.684;23.260;2022-08-30T11:29:35;94734.06;;;28.12;68.79
12793;BME280;6460;42.684;23.260;2022-08-30T11:32:24;94736.50;;;28.28;66.19
12793;BME280;6460;42.684;23.260;2022-08-30T11:35:40;94738.81;;;28.63;65.30
12793;BME280;6460;42.684;23.260;2022-08-30T11:38:55;94741.78;;;28.50;64.23
12793;BME280;6460;42.684;23.260;2022-08-30T11:41:10;94744.88;;;27.65;68.58
12793;BME280;6460;42.684;23.260;2022-08-30T11:43:52;94735.66;;;27.77;68.76
12793;BME280;6460;42.684;23.260;2022-08-30T11:46:35;94739.94;;;27.87;67.03
12793;BME280;6460;42.684;23.260;2022-08-30T11:52:24;94737.78;;;27.18;68.62
12793;BME280;6460;42.684;23.260;2022-08-30T11:55:07;94722.09;;;26.88;69.35
12793;BME280;6460;42.684;23.260;2022-08-30T11:57:44;94716.97;;;26.68;70.21
12793;BME280;6460;42.684;23.260;2022-08-30T12:00:28;94719.75;;;26.77;70.54
12793;BME280;6460;42.684;23.260;2022-08-30T12:02:57;94722.34;;;26.72;70.73
12793;BME280;6460;42.684;23.260;2022-08-30T12:05:48;94716.72;;;26.85;70.30
12793;BME280;6460;42.684;23.260;2022-08-30T12:08:50;94708.66;;;26.99;70.49
12793;BME280;6460;42.684;23.260;2022-08-30T12:14:50;94696.88;;;27.53;66.61
12793;BME280;6460;42.684;23.260;2022-08-30T12:17:25;94699.75;;;27.68;64.69
12793;BME280;6460;42.684;23.260;2022-08-30T12:20:16;94693.72;;;27.97;64.53
12793;BME280;6460;42.684;23.260;2022-08-30T12:22:44;94692.53;;;28.40;59.62
12793;BME280;6460;42.684;23.260;2022-08-30T12:25:19;94691.41;;;28.79;58.38
12793;BME280;6460;42.684;23.260;2022-08-30T12:27:47;94676.81;;;29.02;56.24
12793;BME280;6460;42.684;23.260;2022-08-30T12:30:25;94674.44;;;29.33;53.99
12793;BME280;6460;42.684;23.260;2022-08-30T12:32:53;94668.72;;;29.52;53.22
12793;BME280;6460;42.684;23.260;2022-08-30T12:35:25;94664.34;;;29.74;54.02
12793;BME280;6460;42.684;23.260;2022-08-30T12:37:57;94660.94;;;29.94;51.46
12793;BME280;6460;42.684;23.260;2022-08-30T12:40:25;94661.13;;;30.20;50.61
12793;BME280;6460;42.684;23.260;2022-08-30T12:42:56;94660.72;;;30.41;49.13
12793;BME280;6460;42.684;23.260;2022-08-30T12:45:28;94653.94;;;30.42;46.90
12793;BME280;6460;42.684;23.260;2022-08-30T12:48:02;94658.53;;;30.31;45.98
12793;BME280;6460;42.684;23.260;2022-08-30T12:50:33;94650.78;;;30.20;45.03
12793;BME280;6460;42.684;23.260;2022-08-30T12:53:04;94646.31;;;30.58;46.63
12793;BME280;6460;42.684;23.260;2022-08-30T12:55:34;94650.25;;;30.66;47.69
12793;BME280;6460;42.684;23.260;2022-08-30T12:58:05;94652.84;;;30.05;52.99
12793;BME280;6460;42.684;23.260;2022-08-30T13:00:36;94658.81;;;29.60;55.85
12793;BME280;6460;42.684;23.260;2022-08-30T13:03:05;94653.81;;;29.34;56.55
12793;BME280;6460;42.684;23.260;2022-08-30T13:05:52;94675.94;;;28.40;59.81
12793;BME280;6460;42.684;23.260;2022-08-30T13:08:22;94668.16;;;28.53;59.96
12793;BME280;6460;42.684;23.260;2022-08-30T13:10:54;94666.84;;;27.97;61.90
12793;BME280;6460;42.684;23.260;2022-08-30T13:13:31;94670.56;;;28.36;60.55
12793;BME280;6460;42.684;23.260;2022-08-30T13:16:19;94663.69;;;28.31;61.00
12793;BME280;6460;42.684;23.260;2022-08-30T13:18:48;94650.78;;;28.28;61.00
12793;BME280;6460;42.684;23.260;2022-08-30T13:21:25;94654.22;;;27.45;63.84
12793;BME280;6460;42.684;23.260;2022-08-30T13:23:59;94655.13;;;27.69;63.77